LFST/SXB METAR and TAF weather

Enter ICAO airport designator
Station Type Date Time Source
LFST METAR 2020/09/18 06:30 UTC NOAA

LFST 180630Z AUTO 33005KT CAVOK 14/09 Q1022 NOSIG


Station Type Date Time Source
LFST Decoded METAR 2020/09/18 06:30 UTC NOAA

Strasbourg, France (LFST) 48-33N 007-38E 154M
Sep 18, 2020 - 02:30 AM EDT / 2020.09.18 0630 UTC
Wind: from the NNW (330 degrees) at 6 MPH (5 KT):0
Visibility: greater than 7 mile(s):0
Temperature: 57 F (14 C)
Dew Point: 48 F (9 C)
Relative Humidity: 71%
Pressure (altimeter): 30.18 in. Hg (1022 hPa)
ob: LFST 180630Z AUTO 33005KT CAVOK 14/09 Q1022 NOSIG
cycle: 6

Station Type Date Time Source
LFST TAF 2020/09/18 06:21 UTC NOAA

TAF LFST 180500Z 1806/1906 03008KT CAVOK

Example: see airport list